Time;durP1;ratioP1;P1;durP2;ratioP2;P2;SDS_P1;SDS_P2;PMS_P1;PMS_P2;Temp;Humidity;BMP_temperature;BMP_pressure;BME280_temperature;BME280_humidity;BME280_pressure;Samples;Min_cycle;Max_cycle;Signal;HPM_P1;HPM_P2
2022/02/15 00:02:13;;;;;;;13.75;4.93;;;;;;;13.31;38.50;100263.53;4989217;28;96810;-73
2022/02/15 00:04:40;;;;;;;9.43;4.57;;;;;;;13.39;38.46;100268.44;4990633;28;99485;-69
2022/02/15 00:07:07;;;;;;;7.50;4.53;;;;;;;13.34;38.65;100268.66;4989323;28;99896;-70
2022/02/15 00:09:34;;;;;;;12.55;4.53;;;;;;;13.12;38.89;100263.69;4992501;28;97704;-71
2022/02/15 00:12:00;;;;;;;10.63;4.38;;;;;;;13.26;38.71;100262.91;4988035;28;97469;-70
2022/02/15 00:14:27;;;;;;;10.27;5.10;;;;;;;13.04;39.26;100260.53;4986461;28;98118;-70
2022/02/15 00:16:53;;;;;;;8.75;5.05;;;;;;;13.06;39.39;100255.97;4996099;28;99240;-70
2022/02/15 00:19:20;;;;;;;8.20;4.47;;;;;;;12.94;39.49;100261.09;4991197;28;97660;-70
2022/02/15 00:21:47;;;;;;;9.00;4.32;;;;;;;12.80;39.86;100259.16;4991142;28;97639;-72
2022/02/15 00:24:14;;;;;;;12.88;4.78;;;;;;;12.80;39.94;100266.28;4990608;28;99005;-70
2022/02/15 00:26:40;;;;;;;10.23;5.22;;;;;;;13.04;39.71;100259.66;4988346;28;99088;-70
2022/02/15 00:29:07;;;;;;;10.90;4.55;;;;;;;13.05;39.84;100262.25;4987779;28;97691;-71
2022/02/15 00:31:33;;;;;;;14.05;4.78;;;;;;;13.11;39.55;100263.72;4993442;28;96792;-71
2022/02/15 00:34:00;;;;;;;13.82;4.75;;;;;;;13.09;39.57;100263.78;4995064;28;98226;-70
2022/02/15 00:36:26;;;;;;;7.82;4.40;;;;;;;12.94;39.91;100261.94;4987802;28;99328;-69
2022/02/15 00:38:54;;;;;;;11.45;5.35;;;;;;;12.54;40.68;100267.59;4989459;28;96709;-69
2022/02/15 00:41:20;;;;;;;13.68;5.30;;;;;;;12.55;40.79;100258.72;4993327;28;96907;-69
2022/02/15 00:43:46;;;;;;;7.93;4.85;;;;;;;12.52;41.10;100254.44;4989252;28;99025;-69
2022/02/15 00:46:13;;;;;;;9.90;5.07;;;;;;;12.80;40.67;100259.16;4992739;28;99322;-69
2022/02/15 00:48:39;;;;;;;8.65;4.90;;;;;;;12.92;40.40;100257.69;4989888;28;96759;-69
2022/02/15 00:51:06;;;;;;;9.57;5.05;;;;;;;12.76;40.56;100254.97;4992184;28;97365;-72
2022/02/15 00:53:32;;;;;;;10.55;4.78;;;;;;;12.67;40.80;100263.38;4992185;28;99641;-70
2022/02/15 00:56:00;;;;;;;9.48;5.13;;;;;;;12.84;40.63;100255.41;4992221;28;99288;-70
2022/02/15 00:58:26;;;;;;;11.80;4.82;;;;;;;13.04;40.44;100255.22;4992339;28;96736;-71
2022/02/15 01:00:53;;;;;;;9.77;4.63;;;;;;;13.03;40.38;100264.13;4988382;28;97434;-71
2022/02/15 01:03:19;;;;;;;8.75;4.28;;;;;;;12.96;40.48;100267.16;4980729;28;99425;-71
2022/02/15 01:05:46;;;;;;;10.20;4.53;;;;;;;13.09;40.41;100269.09;4996542;28;98949;-70
2022/02/15 01:08:12;;;;;;;11.77;4.25;;;;;;;12.89;40.78;100268.44;4992200;28;96934;-70
2022/02/15 01:10:39;;;;;;;11.50;4.97;;;;;;;12.96;40.66;100268.03;4992015;28;96807;-72
2022/02/15 01:13:07;;;;;;;12.50;5.10;;;;;;;13.19;40.46;100276.59;4990553;28;99220;-71
2022/02/15 01:15:34;;;;;;;8.63;4.93;;;;;;;12.59;41.46;100277.03;4991533;28;99187;-71
2022/02/15 01:18:00;;;;;;;11.20;5.05;;;;;;;12.61;41.70;100271.66;4991468;28;96912;-71
2022/02/15 01:20:27;;;;;;;11.23;4.85;;;;;;;12.65;41.54;100273.22;4991660;28;96942;-72
2022/02/15 01:22:55;;;;;;;12.80;4.47;;;;;;;12.85;41.23;100270.41;4988450;28;98935;-70
2022/02/15 01:25:22;;;;;;;10.07;4.60;;;;;;;12.91;41.17;100267.44;4985806;28;97890;-71
2022/02/15 01:27:49;;;;;;;8.65;4.53;;;;;;;12.76;41.54;100262.91;4988386;28;97471;-71
2022/02/15 01:30:16;;;;;;;10.30;4.95;;;;;;;12.66;41.81;100261.69;4982266;28;96946;-71
2022/02/15 01:32:43;;;;;;;7.88;4.70;;;;;;;12.72;41.82;100264.88;4989653;28;99605;-70
2022/02/15 01:35:09;;;;;;;9.48;4.43;;;;;;;12.73;42.12;100263.91;4989229;28;98308;-70
2022/02/15 01:37:35;;;;;;;11.07;4.90;;;;;;;12.71;41.90;100264.94;4986398;28;96728;-69
2022/02/15 01:40:02;;;;;;;11.98;5.20;;;;;;;12.76;41.99;100260.25;4986616;28;96977;-71
2022/02/15 01:42:28;;;;;;;10.40;4.82;;;;;;;12.82;42.05;100269.69;4985596;28;99243;-70
2022/02/15 01:44:55;;;;;;;13.35;4.80;;;;;;;13.02;41.54;100264.19;4983994;28;99453;-70
2022/02/15 01:47:24;;;;;;;14.55;5.13;;;;;;;12.99;41.57;100270.53;4985689;28;98851;-70
2022/02/15 01:49:50;;;;;;;8.98;4.25;;;;;;;12.60;42.56;100267.31;4990483;28;97271;-71
2022/02/15 01:52:18;;;;;;;10.88;4.40;;;;;;;12.52;42.95;100269.47;4990919;28;98536;-70
2022/02/15 01:54:44;;;;;;;12.98;4.18;;;;;;;12.69;42.72;100274.75;4989197;28;99049;-71
2022/02/15 01:57:11;;;;;;;11.55;4.57;;;;;;;12.67;42.72;100269.53;4990942;28;96892;-70
2022/02/15 01:59:37;;;;;;;10.07;4.40;;;;;;;12.72;42.77;100269.31;4985980;28;97064;-70
2022/02/15 02:02:04;;;;;;;11.40;4.85;;;;;;;12.68;42.84;100270.41;4988687;28;98914;-68
2022/02/15 02:07:16;;;;;;;12.07;4.45;;;;;;;12.68;43.05;100270.41;4994028;28;96933;-80
2022/02/15 02:09:43;;;;;;;12.80;4.40;;;;;;;12.65;43.49;100268.78;4992484;28;96830;-79
2022/02/15 02:12:10;;;;;;;9.50;4.93;;;;;;;12.69;43.09;100277.41;4992720;28;98350;-80
2022/02/15 02:14:40;;;;;;;9.20;4.70;;;;;;;12.29;43.98;100279.44;4992520;28;101890;-79
2022/02/15 02:17:07;;;;;;;9.38;4.57;;;;;;;12.36;44.13;100282.63;4985598;28;96737;-79
2022/02/15 02:19:36;;;;;;;11.27;4.72;;;;;;;12.40;44.17;100286.00;4990757;28;96850;-80
2022/02/15 02:22:12;;;;;;;8.35;4.38;;;;;;;12.43;44.18;100288.47;4999696;28;97902;-79
2022/02/15 02:24:39;;;;;;;9.20;4.23;;;;;;;12.25;44.53;100285.84;4998648;28;99204;-79
2022/02/15 02:27:05;;;;;;;14.02;4.45;;;;;;;12.26;44.54;100284.03;4992997;28;96794;-80
2022/02/15 02:29:34;;;;;;;9.55;4.43;;;;;;;12.06;45.32;100292.97;4989104;28;97302;-78
2022/02/15 02:32:00;;;;;;;9.85;4.78;;;;;;;12.22;44.92;100290.41;4984766;28;99115;-80
2022/02/15 02:34:29;;;;;;;8.43;4.20;;;;;;;12.27;44.96;100289.25;4991217;28;102387;-78
2022/02/15 02:36:55;;;;;;;10.73;4.30;;;;;;;12.27;45.19;100291.06;4985933;28;97613;-79
2022/02/15 02:39:24;;;;;;;8.93;4.50;;;;;;;12.12;45.48;100299.75;4990494;28;96873;-79
2022/02/15 02:41:50;;;;;;;10.43;4.60;;;;;;;12.34;45.16;100293.31;4983659;28;98889;-79
2022/02/15 02:44:17;;;;;;;11.25;4.20;;;;;;;12.08;45.78;100296.38;4991448;28;98960;-79
2022/02/15 02:46:44;;;;;;;6.88;4.47;;;;;;;12.17;45.85;100306.53;4992217;28;98571;-80
2022/02/15 02:49:11;;;;;;;15.73;4.28;;;;;;;12.32;45.47;100304.94;4990454;28;97056;-81
2022/02/15 02:51:40;;;;;;;8.35;4.50;;;;;;;12.18;45.81;100307.41;4989962;28;99334;-81
2022/02/15 02:54:09;;;;;;;11.38;4.28;;;;;;;12.21;45.68;100302.78;4995078;28;98049;-79
2022/02/15 02:56:37;;;;;;;11.02;4.13;;;;;;;11.98;46.46;100308.34;4990959;28;96804;-80
2022/02/15 02:59:15;;;;;;;;;;;;;;;;;;;;;
2022/02/15 03:02:13;;;;;;;;;;;;;;;;;;;;;
2022/02/15 03:04:46;;;;;;;9.95;3.92;;;;;;;12.16;45.99;100303.94;4953675;28;126492;-79
2022/02/15 03:07:20;;;;;;;9.25;4.45;;;;;;;12.12;46.20;100313.00;4988381;28;96960;-80
2022/02/15 03:09:48;;;;;;;11.43;4.32;;;;;;;12.03;46.24;100311.63;4991095;28;97829;-78
2022/02/15 03:12:44;;;;;;;9.10;3.95;;;;;;;12.16;46.14;100307.47;4993746;28;100038;-80
2022/02/15 03:15:26;;;;;;;;;;;;;;;;;;;;;
2022/02/15 03:17:57;;;;;;;8.80;4.13;;;;;;;11.96;46.66;100326.09;4981591;28;118353;-80
2022/02/15 03:20:32;;;;;;;13.95;4.78;;;;;;;12.16;46.30;100331.31;4991099;28;98418;-78
2022/02/15 03:23:20;;;;;;;6.00;4.10;;;;;;;12.13;46.44;100325.31;4988050;28;98223;-80
2022/02/15 03:25:47;;;;;;;8.88;4.25;;;;;;;12.17;46.34;100330.38;4991065;28;101188;-78
2022/02/15 03:28:19;;;;;;;13.60;3.83;;;;;;;12.04;46.68;100328.38;4986582;28;96895;-79
2022/02/15 03:31:02;;;;;;;7.30;3.80;;;;;;;12.13;46.58;100331.47;4985393;28;97437;-78
2022/02/15 03:33:29;;;;;;;10.63;4.15;;;;;;;12.10;46.59;100341.34;4987828;28;98407;-79
2022/02/15 03:35:56;;;;;;;11.18;4.30;;;;;;;11.98;46.77;100340.13;4990582;28;98894;-79
2022/02/15 03:38:23;;;;;;;9.98;3.95;;;;;;;12.14;46.73;100351.69;4989417;28;96952;-79
2022/02/15 03:43:36;;;;;;;10.52;4.00;;;;;;;12.17;46.35;100351.56;4985991;28;97418;-79
2022/02/15 03:46:05;;;;;;;15.07;4.30;;;;;;;12.10;46.70;100349.28;4987722;28;99859;-78
2022/02/15 03:48:33;;;;;;;10.35;3.85;;;;;;;11.95;47.13;100343.78;4991430;28;97203;-78
2022/02/15 03:51:07;;;;;;;11.60;5.07;;;;;;;11.87;47.35;100345.94;4985898;28;96818;-79
2022/02/15 03:53:34;;;;;;;8.45;4.40;;;;;;;11.97;47.16;100341.91;4983898;28;102950;-79
2022/02/15 03:56:01;;;;;;;10.32;4.30;;;;;;;12.13;47.02;100350.00;4988142;28;100739;-79
2022/02/15 03:58:30;;;;;;;8.07;4.20;;;;;;;12.06;46.84;100353.03;4988391;28;96846;-78
2022/02/15 04:00:56;;;;;;;8.20;4.13;;;;;;;12.07;47.19;100357.38;4985065;28;96913;-78
2022/02/15 04:03:26;;;;;;;10.13;4.63;;;;;;;11.98;47.39;100366.63;4987524;28;98859;-79
2022/02/15 04:05:54;;;;;;;10.30;4.28;;;;;;;11.98;47.70;100358.66;4993114;28;98021;-79
2022/02/15 04:08:21;;;;;;;9.82;4.18;;;;;;;11.78;48.37;100364.91;4989634;28;96853;-78
2022/02/15 04:11:12;;;;;;;9.05;4.40;;;;;;;11.51;49.25;100363.47;5011471;28;96846;-79
2022/02/15 04:13:46;;;;;;;9.40;5.07;;;;;;;11.56;49.13;100366.75;5009889;28;97194;-79
2022/02/15 04:16:15;;;;;;;8.30;4.32;;;;;;;11.58;49.34;100359.63;5009930;28;97046;-79
2022/02/15 04:18:52;;;;;;;11.25;4.22;;;;;;;11.46;49.62;100374.28;4998590;28;96782;-80
2022/02/15 04:21:24;;;;;;;11.93;4.00;;;;;;;11.53;49.75;100362.50;5000985;28;96512;-79
2022/02/15 04:23:57;;;;;;;8.82;4.25;;;;;;;11.66;49.39;100362.78;5007251;28;99847;-78
2022/02/15 04:26:34;;;;;;;9.15;3.92;;;;;;;11.47;49.92;100360.13;5005014;28;97367;-79
2022/02/15 04:29:02;;;;;;;12.40;4.55;;;;;;;11.69;49.28;100359.13;5001789;28;97103;-78
2022/02/15 04:31:44;;;;;;;8.93;4.07;;;;;;;11.68;49.50;100360.94;4999800;28;97251;-80
2022/02/15 04:34:40;;;;;;;;;;;;;;;;;;;;;
2022/02/15 04:37:28;;;;;;;9.73;4.35;;;;;;;11.64;49.46;100367.28;5010619;28;127411;-81
2022/02/15 04:39:56;;;;;;;11.85;4.40;;;;;;;11.47;50.10;100375.13;5008150;27;96553;-80
2022/02/15 04:42:26;;;;;;;7.03;4.10;;;;;;;11.39;50.22;100369.31;5010403;28;96565;-80
2022/02/15 04:47:51;;;;;;;7.82;4.00;;;;;;;11.50;50.32;100378.50;5013125;28;98044;-80
2022/02/15 04:50:47;;;;;;;10.82;3.90;;;;;;;11.47;50.20;100388.38;5003573;28;96597;-79
2022/02/15 04:53:20;;;;;;;11.13;4.30;;;;;;;11.66;49.84;100391.03;5014892;28;96669;-80
2022/02/15 04:55:53;;;;;;;9.60;4.00;;;;;;;11.80;49.36;100384.22;5001981;28;98353;-80
2022/02/15 04:58:23;;;;;;;9.40;4.47;;;;;;;11.47;50.50;100391.88;4997425;28;98890;-80
2022/02/15 05:01:23;;;;;;;;;;;;;;;;;;;;;
2022/02/15 05:07:41;;;;;;;;;;;;;;;;;;;;;
2022/02/15 05:10:30;;;;;;;;;;;;;;;;;;;;;
2022/02/15 05:13:13;;;;;;;;;;;;;;;;;;;;;
2022/02/15 05:15:52;;;;;;;14.20;4.75;;;;;;;11.48;50.64;100393.59;4998745;28;116276;-81
2022/02/15 05:18:27;;;;;;;8.05;4.40;;;;;;;11.42;50.65;100398.31;4993182;28;100324;-81
2022/02/15 05:21:02;;;;;;;9.38;4.53;;;;;;;11.45;50.75;100406.09;4999917;28;99567;-80
2022/02/15 05:23:32;;;;;;;12.30;4.30;;;;;;;11.15;51.69;100414.44;4997334;28;96915;-80
2022/02/15 05:26:35;;;;;;;;;;;;;;;;;;;;;
2022/02/15 05:29:49;;;;;;;;;;;;;;;;;;;;;
2022/02/15 05:33:10;;;;;;;;;;;;;;;;;;;;;
2022/02/15 05:36:20;;;;;;;;;;;;;;;;;;;;;
2022/02/15 05:45:44;;;;;;;;;;;;;;;;;;;;;
2022/02/15 05:56:45;;;;;;;;;;;;;;;;;;;;;
2022/02/15 05:59:52;;;;;;;;;;;;;;;;;;;;;
2022/02/15 06:05:49;;;;;;;12.40;4.60;;;;;;;11.08;52.02;100444.72;4845779;28;97347;-80
2022/02/15 06:08:17;;;;;;;10.80;4.18;;;;;;;11.16;51.88;100458.47;4922954;28;99224;-81
2022/02/15 06:10:55;;;;;;;9.35;4.13;;;;;;;11.17;51.88;100452.25;4995305;28;99236;-79
2022/02/15 06:13:21;;;;;;;10.25;4.60;;;;;;;11.33;51.59;100449.81;4999968;28;98706;-79
2022/02/15 06:15:49;;;;;;;11.50;4.57;;;;;;;11.34;51.50;100466.56;4995304;28;97097;-80
2022/02/15 06:18:26;;;;;;;12.20;4.65;;;;;;;11.46;50.96;100473.97;4995796;28;97769;-79
2022/02/15 06:21:04;;;;;;;12.30;3.95;;;;;;;11.48;50.95;100475.63;4996918;28;97102;-81
2022/02/15 06:24:12;;;;;;;;;;;;;;;;;;;;;
2022/02/15 06:27:17;;;;;;;8.73;4.07;;;;;;;11.47;50.84;100486.25;4911599;28;117246;-80
2022/02/15 06:32:48;;;;;;;10.10;4.05;;;;;;;11.24;51.56;100489.00;4975462;28;97862;-79
2022/02/15 06:35:15;;;;;;;11.13;4.28;;;;;;;11.24;51.44;100489.88;4992592;28;96884;-78
2022/02/15 06:37:44;;;;;;;7.43;4.20;;;;;;;11.35;51.03;100489.44;4991306;28;96755;-78
2022/02/15 06:40:12;;;;;;;12.02;4.18;;;;;;;11.37;51.30;100498.16;4991389;28;99214;-78
2022/02/15 06:42:39;;;;;;;12.98;3.88;;;;;;;11.36;51.35;100504.38;4993104;28;97758;-78
2022/02/15 06:45:19;;;;;;;;;;;;;;;;;;;;;
2022/02/15 06:47:49;;;;;;;9.35;3.90;;;;;;;11.28;51.49;100511.78;4987479;28;117992;-79
2022/02/15 06:50:17;;;;;;;10.77;4.63;;;;;;;11.40;51.24;100517.41;4997383;28;98843;-79
2022/02/15 06:53:21;;;;;;;9.30;4.60;;;;;;;11.36;50.87;100513.16;4998681;28;97643;-79
2022/02/15 06:55:49;;;;;;;13.68;4.15;;;;;;;11.43;50.92;100513.75;5002880;28;97071;-79
2022/02/15 06:58:17;;;;;;;8.23;3.50;;;;;;;11.66;50.31;100521.59;5001874;28;96812;-80
2022/02/15 07:00:44;;;;;;;7.50;3.80;;;;;;;11.57;50.38;100528.13;5001640;28;101501;-80
2022/02/15 07:03:14;;;;;;;7.25;3.70;;;;;;;11.44;50.83;100523.41;5001487;28;98740;-80
2022/02/15 07:05:41;;;;;;;122.43;10.07;;;;;;;11.53;50.54;100523.03;4997417;28;96805;-80
2022/02/15 07:08:07;;;;;;;10.85;4.63;;;;;;;11.63;50.48;100536.72;4989480;28;96940;-78
2022/02/15 07:10:36;;;;;;;9.90;3.58;;;;;;;11.76;49.96;100535.28;4992480;28;99418;-77
2022/02/15 07:13:04;;;;;;;5.25;3.15;;;;;;;11.64;50.13;100533.16;5000027;28;98989;-80
2022/02/15 07:15:31;;;;;;;13.05;3.45;;;;;;;11.43;50.64;100535.78;5000084;28;97761;-77
2022/02/15 07:18:01;;;;;;;11.90;3.88;;;;;;;11.62;50.13;100548.25;4999974;28;96778;-80
2022/02/15 07:20:34;;;;;;;7.85;3.53;;;;;;;11.65;50.02;100542.81;4992959;28;99014;-80
2022/02/15 07:25:57;;;;;;;145.25;9.80;;;;;;;11.83;49.49;100542.03;5499923;22;99569;-82
2022/02/15 07:28:25;;;;;;;13.88;3.67;;;;;;;11.68;49.60;100534.75;5026276;28;97138;-77
2022/02/15 07:30:51;;;;;;;8.27;3.38;;;;;;;11.86;49.43;100533.97;5016453;28;98207;-77
2022/02/15 07:33:18;;;;;;;14.52;3.78;;;;;;;11.70;49.29;100523.16;5017743;28;96803;-78
2022/02/15 07:35:45;;;;;;;9.80;3.63;;;;;;;11.68;49.21;100530.34;5019995;28;96674;-80
2022/02/15 07:38:11;;;;;;;11.55;3.35;;;;;;;11.77;49.29;100535.25;5023107;28;97185;-78
2022/02/15 07:46:00;;;;;;;19.65;3.75;;;;;;;11.84;48.76;100535.84;5528466;22;99722;-80
2022/02/15 07:55:57;;;;;;;14.10;3.50;;;;;;;11.70;49.13;100562.00;4985722;27;98565;-81
2022/02/15 07:58:32;;;;;;;10.95;3.30;;;;;;;11.91;48.42;100563.75;5000208;28;96862;-82
2022/02/15 08:01:31;;;;;;;14.25;3.38;;;;;;;11.82;48.48;100578.25;4995323;28;96712;-81
2022/02/15 08:03:58;;;;;;;12.65;3.17;;;;;;;12.00;48.05;100581.03;5010024;22;98421;-71
2022/02/15 08:06:24;;;;;;;11.20;3.40;;;;;;;12.26;47.49;100573.66;5008955;28;98369;-69
2022/02/15 08:08:51;;;;;;;9.98;3.47;;;;;;;12.04;48.00;100582.63;5013679;28;97593;-72
2022/02/15 08:11:17;;;;;;;12.90;3.17;;;;;;;12.12;47.88;100586.66;5012957;28;96861;-69
2022/02/15 08:13:44;;;;;;;8.88;3.35;;;;;;;12.22;47.40;100581.78;5011645;28;97511;-69
2022/02/15 08:16:10;;;;;;;12.60;3.60;;;;;;;12.18;47.64;100589.03;5004597;28;99246;-70
2022/02/15 08:18:41;;;;;;;11.32;3.72;;;;;;;12.18;47.64;100594.31;5002984;28;96799;-69
2022/02/15 08:21:08;;;;;;;11.80;3.75;;;;;;;12.42;47.46;100591.50;5006735;28;97320;-70
2022/02/15 08:23:34;;;;;;;8.60;4.00;;;;;;;12.21;47.31;100601.25;4994751;28;99573;-70
2022/02/15 08:26:01;;;;;;;10.77;3.65;;;;;;;12.38;47.55;100602.25;5008472;28;99840;-70
2022/02/15 08:28:27;;;;;;;11.10;4.22;;;;;;;12.46;47.33;100609.00;5001439;28;96829;-68
2022/02/15 08:30:53;;;;;;;13.98;4.15;;;;;;;12.32;47.45;100597.22;4999572;28;96902;-70
2022/02/15 08:33:20;;;;;;;15.32;4.68;;;;;;;12.50;47.23;100606.13;4998456;28;99452;-71
2022/02/15 08:35:48;;;;;;;11.20;4.53;;;;;;;12.54;47.24;100602.41;5005519;28;99313;-70
2022/02/15 08:38:14;;;;;;;12.52;4.82;;;;;;;12.50;47.61;100594.66;5004547;28;99806;-70
2022/02/15 08:40:42;;;;;;;12.63;3.97;;;;;;;13.05;46.55;100600.91;4998365;28;97551;-72
2022/02/15 08:43:09;;;;;;;30.55;4.50;;;;;;;13.11;46.17;100597.97;5001155;28;98961;-70
2022/02/15 08:45:36;;;;;;;11.98;3.72;;;;;;;13.44;45.29;100600.78;4996097;28;98815;-69
2022/02/15 08:48:02;;;;;;;10.23;3.25;;;;;;;13.42;45.35;100600.84;5000436;28;97123;-70
2022/02/15 08:50:29;;;;;;;10.27;3.78;;;;;;;13.40;45.35;100597.41;5001933;28;97180;-71
2022/02/15 08:52:56;;;;;;;9.43;3.50;;;;;;;13.41;45.37;100600.94;4996962;28;101747;-72
2022/02/15 08:55:23;;;;;;;15.93;4.05;;;;;;;13.58;44.89;100600.97;5003797;28;99074;-70
2022/02/15 08:57:50;;;;;;;8.38;3.28;;;;;;;13.40;45.11;100610.69;4995772;28;96845;-70
2022/02/15 09:00:18;;;;;;;102.25;8.35;;;;;;;13.80;44.53;100606.03;5002341;28;96872;-70
2022/02/15 09:02:45;;;;;;;11.45;4.05;;;;;;;13.47;44.93;100616.56;4990001;28;102796;-71
2022/02/15 09:05:11;;;;;;;15.10;4.70;;;;;;;13.69;44.52;100611.91;4998208;28;98908;-71
2022/02/15 09:07:40;;;;;;;10.57;4.13;;;;;;;13.56;44.71;100616.09;4999597;28;96958;-71
2022/02/15 09:10:09;;;;;;;18.65;3.55;;;;;;;13.99;43.93;100617.44;5003434;28;97670;-70
2022/02/15 09:12:36;;;;;;;17.17;4.35;;;;;;;13.94;43.63;100617.69;4997752;28;98460;-69
2022/02/15 09:15:03;;;;;;;10.18;3.00;;;;;;;14.15;43.28;100610.41;4995196;28;98861;-71
2022/02/15 09:17:29;;;;;;;13.45;3.88;;;;;;;14.20;43.05;100619.00;4996388;28;96882;-71
2022/02/15 09:19:56;;;;;;;8.38;3.28;;;;;;;14.09;42.87;100629.31;5001396;28;97848;-72
2022/02/15 09:22:22;;;;;;;9.52;3.47;;;;;;;13.78;43.30;100627.38;4997691;28;99005;-70
2022/02/15 09:24:51;;;;;;;13.50;3.78;;;;;;;14.41;42.21;100618.81;4999539;28;99359;-70
2022/02/15 09:27:18;;;;;;;11.18;3.58;;;;;;;13.92;42.96;100622.19;5004147;28;96897;-70
2022/02/15 09:29:45;;;;;;;14.93;3.90;;;;;;;13.79;42.90;100621.09;4993591;28;97161;-72
2022/02/15 09:32:14;;;;;;;12.25;3.38;;;;;;;13.57;43.20;100617.84;4994555;28;99403;-69
2022/02/15 09:34:40;;;;;;;9.25;3.30;;;;;;;13.62;43.39;100628.22;4996498;28;98643;-71
2022/02/15 09:37:07;;;;;;;7.90;2.92;;;;;;;13.44;43.43;100628.19;4996049;28;97101;-71
2022/02/15 09:39:33;;;;;;;8.02;2.83;;;;;;;13.67;42.87;100616.41;4998721;28;96936;-70
2022/02/15 09:42:00;;;;;;;11.77;3.83;;;;;;;14.17;41.91;100623.63;4994341;28;99278;-69
2022/02/15 09:44:28;;;;;;;8.20;3.08;;;;;;;14.32;41.57;100625.44;4999476;28;99126;-73
2022/02/15 09:46:55;;;;;;;13.65;3.25;;;;;;;13.62;42.54;100615.78;4998831;28;97502;-72
2022/02/15 09:52:08;;;;;;;;;;;;;;;14.26;41.29;100617.81;4993191;28;97106;-70
2022/02/15 09:54:35;;;;;;;12.23;3.95;;;;;;;14.14;41.33;100618.44;4996165;28;97981;-70
2022/02/15 09:57:02;;;;;;;10.57;3.78;;;;;;;13.49;42.72;100627.97;4993833;28;97018;-69
2022/02/15 09:59:30;;;;;;;10.13;3.75;;;;;;;13.64;42.56;100629.00;4998927;28;96978;-70
2022/02/15 10:01:57;;;;;;;8.30;4.68;;;;;;;13.55;42.81;100640.94;4995471;28;99243;-69
2022/02/15 10:04:33;;;;;;;6.95;4.13;;;;;;;13.41;43.06;100627.47;4999450;28;99021;-71
2022/02/15 10:07:00;;;;;;;9.93;4.15;;;;;;;13.76;42.37;100639.88;4996484;28;96752;-70
2022/02/15 10:09:27;;;;;;;10.75;4.70;;;;;;;13.65;42.50;100642.22;5002926;28;97488;-70
2022/02/15 10:12:01;;;;;;;14.57;4.93;;;;;;;13.80;42.17;100633.47;5001665;28;96969;-70
2022/02/15 10:14:29;;;;;;;16.27;5.07;;;;;;;13.49;43.02;100633.28;4998185;28;100435;-70
2022/02/15 10:16:56;;;;;;;12.88;4.60;;;;;;;13.90;42.32;100640.03;4997341;28;97495;-73
2022/02/15 10:19:23;;;;;;;24.38;5.32;;;;;;;13.77;42.35;100633.63;5003904;28;96824;-73
2022/02/15 10:21:54;;;;;;;11.70;4.97;;;;;;;14.01;41.91;100633.31;4996369;28;97900;-73
2022/02/15 10:24:21;;;;;;;9.77;5.47;;;;;;;14.28;41.40;100631.88;4996806;28;98260;-74
2022/02/15 10:26:56;;;;;;;13.80;6.05;;;;;;;14.12;41.78;100636.25;5001371;28;96892;-74
2022/02/15 10:29:23;;;;;;;9.63;5.05;;;;;;;13.68;42.76;100644.69;5000356;28;96836;-72
2022/02/15 10:31:55;;;;;;;9.27;4.68;;;;;;;14.14;41.65;100647.69;4999325;28;97866;-72
2022/02/15 10:34:21;;;;;;;9.23;4.63;;;;;;;13.29;43.29;100655.47;4994225;28;99369;-73
2022/02/15 10:36:54;;;;;;;11.73;4.82;;;;;;;13.80;42.48;100657.34;4992283;28;96855;-74
2022/02/15 10:39:21;;;;;;;64.15;7.88;;;;;;;14.33;41.35;100661.72;5004426;28;96973;-76
2022/02/15 10:41:47;;;;;;;12.80;5.55;;;;;;;14.42;41.37;100658.63;5003143;28;99526;-73
2022/02/15 10:44:15;;;;;;;11.05;5.10;;;;;;;14.37;41.15;100655.34;5006994;28;98966;-74
2022/02/15 10:46:42;;;;;;;15.73;6.32;;;;;;;13.91;42.47;100665.63;4999158;28;99279;-74
2022/02/15 10:49:10;;;;;;;10.52;4.57;;;;;;;14.36;41.19;100664.25;5005052;28;96905;-74
2022/02/15 10:51:37;;;;;;;11.98;4.20;;;;;;;14.50;40.97;100671.53;5003821;28;99462;-75
2022/02/15 10:54:03;;;;;;;8.75;4.53;;;;;;;14.40;40.97;100668.47;5000108;28;98871;-72
2022/02/15 10:56:32;;;;;;;9.02;4.22;;;;;;;14.61;40.23;100663.81;4998359;28;96783;-73
2022/02/15 10:59:03;;;;;;;9.73;4.03;;;;;;;14.62;40.23;100666.41;4991700;28;96755;-73
2022/02/15 11:01:30;;;;;;;9.82;3.75;;;;;;;15.20;39.45;100665.88;4994257;28;98767;-73
2022/02/15 11:03:58;;;;;;;65.65;14.00;;;;;;;14.61;39.81;100662.03;4998748;28;97961;-74
2022/02/15 11:06:26;;;;;;;7.57;4.10;;;;;;;13.92;41.30;100675.34;5007301;28;96769;-71
2022/02/15 11:08:54;;;;;;;16.20;5.00;;;;;;;14.12;40.79;100686.75;5007641;28;96933;-74
2022/02/15 11:11:24;;;;;;;7.05;4.25;;;;;;;13.95;41.02;100676.97;5020324;28;99498;-73
2022/02/15 11:13:54;;;;;;;13.13;3.72;;;;;;;13.76;41.27;100676.19;5011641;28;97763;-73
2022/02/15 11:16:24;;;;;;;15.90;4.22;;;;;;;14.20;40.57;100672.13;5004206;28;96925;-74
2022/02/15 11:18:51;;;;;;;8.82;3.90;;;;;;;14.07;40.61;100686.13;4999212;28;96883;-71
2022/02/15 11:21:21;;;;;;;9.73;4.32;;;;;;;13.71;41.40;100678.22;5001261;28;98893;-72
2022/02/15 11:23:58;;;;;;;9.18;3.75;;;;;;;14.37;39.86;100671.28;5003271;28;97765;-74
2022/02/15 11:26:35;;;;;;;7.95;3.80;;;;;;;14.60;39.32;100678.91;5006796;28;96913;-73
2022/02/15 11:29:05;;;;;;;8.75;3.53;;;;;;;14.66;39.50;100678.59;4999996;28;96892;-73
2022/02/15 11:31:33;;;;;;;12.93;3.85;;;;;;;14.88;39.21;100680.09;5002902;28;99567;-73
2022/02/15 11:34:03;;;;;;;15.70;4.65;;;;;;;14.88;39.02;100690.75;5001672;28;96950;-73
2022/02/15 11:36:30;;;;;;;11.05;4.70;;;;;;;14.90;39.23;100688.88;4998381;28;96829;-73
2022/02/15 11:38:59;;;;;;;11.70;4.45;;;;;;;14.95;39.27;100681.50;4998507;28;97443;-73
2022/02/15 11:41:27;;;;;;;10.27;4.22;;;;;;;14.92;39.08;100685.16;4995738;28;100496;-73
2022/02/15 11:43:56;;;;;;;6.72;3.42;;;;;;;14.48;38.75;100682.22;4997261;28;99940;-73
2022/02/15 11:46:30;;;;;;;6.90;3.50;;;;;;;14.91;38.36;100685.25;5001073;28;97278;-74
2022/02/15 11:49:08;;;;;;;6.35;3.30;;;;;;;14.90;37.60;100680.91;4999159;28;97805;-76
2022/02/15 11:51:35;;;;;;;8.00;3.20;;;;;;;14.87;37.60;100689.03;4996336;28;98407;-73
2022/02/15 11:54:04;;;;;;;6.10;3.42;;;;;;;14.76;38.02;100689.63;4999413;28;99340;-73
2022/02/15 11:56:31;;;;;;;6.00;2.80;;;;;;;14.73;37.98;100690.63;4997153;28;98093;-74
2022/02/15 11:58:58;;;;;;;9.35;3.58;;;;;;;14.84;37.62;100697.16;4998660;28;97915;-75
2022/02/15 12:01:26;;;;;;;4.70;3.05;;;;;;;14.65;37.93;100692.81;4997354;28;97932;-72
2022/02/15 12:03:53;;;;;;;7.40;3.33;;;;;;;14.63;37.90;100693.88;5004303;28;99143;-73
2022/02/15 12:06:20;;;;;;;7.25;3.53;;;;;;;14.86;37.79;100701.47;5006294;28;98046;-73
2022/02/15 12:08:56;;;;;;;7.82;3.47;;;;;;;14.85;37.31;100701.53;4997734;28;96836;-73
2022/02/15 12:11:34;;;;;;;;;;;;;;;14.88;37.44;100706.72;5000869;28;97872;-72
2022/02/15 12:14:08;;;;;;;4.75;3.50;;;;;;;15.06;37.21;100701.25;5003634;28;97888;-74
2022/02/15 12:16:43;;;;;;;5.03;2.92;;;;;;;15.00;37.17;100698.06;5001387;28;97316;-74
2022/02/15 12:19:09;;;;;;;6.35;3.58;;;;;;;15.04;37.15;100703.13;4998293;28;97647;-73
2022/02/15 12:21:40;;;;;;;10.27;3.63;;;;;;;15.22;36.72;100681.78;5001769;28;99325;-74
2022/02/15 12:24:07;;;;;;;6.70;3.63;;;;;;;15.09;36.48;100684.25;5000436;28;99248;-74
2022/02/15 12:26:40;;;;;;;8.40;4.05;;;;;;;14.77;36.99;100689.50;4997692;28;96873;-73
2022/02/15 12:29:07;;;;;;;6.30;4.32;;;;;;;14.39;37.72;100690.69;5000333;28;98057;-73
2022/02/15 12:31:34;;;;;;;8.25;3.38;;;;;;;15.24;36.66;100686.06;4997212;28;98900;-74
2022/02/15 12:34:01;;;;;;;8.48;3.22;;;;;;;15.07;36.67;100686.13;5001617;28;99054;-73
2022/02/15 12:36:30;;;;;;;9.00;3.63;;;;;;;15.32;36.08;100674.97;4997295;28;96802;-73
2022/02/15 12:38:56;;;;;;;24.85;5.50;;;;;;;15.03;36.43;100673.97;5001246;28;96887;-74
2022/02/15 12:41:23;;;;;;;5.38;3.03;;;;;;;15.30;35.86;100675.06;5005497;28;99374;-73
2022/02/15 12:43:58;;;;;;;4.43;3.10;;;;;;;15.57;35.54;100682.47;4996607;28;98870;-75
2022/02/15 12:46:25;;;;;;;7.20;3.40;;;;;;;15.76;35.17;100669.81;4995789;28;96980;-74
2022/02/15 12:48:52;;;;;;;8.73;3.75;;;;;;;15.69;35.04;100668.44;5000693;28;97053;-74
2022/02/15 12:51:20;;;;;;;5.90;2.95;;;;;;;15.62;35.03;100673.25;4996825;28;97917;-75